THY4YU KEWR-LTFM
Flight info
| Callsign | THY4YU |
|---|---|
| Flight time | N/A |
| Altitude | 37000 |
| Route | MERIT DCT HFD DCT PUT DCT BOS DCT TUSKY N265B NICSO/M084F390 NATS BEXET/N0487F410 DCT LIFFY UL975 WAL M16 DOLAS DCT NAVPI DCT EKSAK DCT SWALM DCT GASKA DCT ENITA DCT ETVIS DCT BUDEX DCT PESAT DCT DUZLA DCT MAVIR DCT TIMUR L606 GASRU T390 RILEX |
| Aircraft | A359/H-SDE2E3GHIJ3J4J5LM1ORWXY/LB1D1 |
Departure
| Time | N/A |
|---|---|
| Airport | Newark Liberty International Airport (KEWR) |
Arrival
| Time | 2026-05-05 11:55 |
|---|---|
| Airport | İstanbul Airport (LTFM) |
| Time | Latitude | Longitude | Altitude | Speed | Heading |
|---|---|---|---|---|---|
| 2026-05-05 11:06 | 44.27184 | 23.34629 | 37039 ft | 508 kts | 130° |
| 2026-05-05 11:07 | 44.22463 | 23.41966 | 37040 ft | 508 kts | 130° |
| 2026-05-05 11:07 | 44.17735 | 23.49292 | 37040 ft | 508 kts | 130° |
| 2026-05-05 11:08 | 44.13009 | 23.56597 | 37040 ft | 508 kts | 130° |
| 2026-05-05 11:08 | 44.08277 | 23.63893 | 37038 ft | 508 kts | 130° |
| 2026-05-05 11:09 | 44.03534 | 23.71189 | 37044 ft | 508 kts | 130° |
| 2026-05-05 11:09 | 43.98785 | 23.78473 | 37041 ft | 508 kts | 130° |
| 2026-05-05 11:10 | 43.94029 | 23.85751 | 37044 ft | 509 kts | 130° |
| 2026-05-05 11:10 | 43.89272 | 23.93010 | 37044 ft | 509 kts | 130° |
| 2026-05-05 11:11 | 43.84507 | 24.00264 | 37046 ft | 509 kts | 130° |
| 2026-05-05 11:11 | 43.79769 | 24.07457 | 37046 ft | 509 kts | 130° |
| 2026-05-05 11:12 | 43.74991 | 24.14694 | 37047 ft | 509 kts | 130° |
| 2026-05-05 11:12 | 43.70211 | 24.21914 | 37049 ft | 509 kts | 131° |
| 2026-05-05 11:13 | 43.65332 | 24.29011 | 37049 ft | 509 kts | 134° |
| 2026-05-05 11:13 | 43.60189 | 24.35747 | 37049 ft | 510 kts | 135° |
| 2026-05-05 11:14 | 43.55018 | 24.42452 | 37053 ft | 510 kts | 135° |
| 2026-05-05 11:14 | 43.49883 | 24.49200 | 37060 ft | 510 kts | 134° |
| 2026-05-05 11:15 | 43.44802 | 24.55923 | 37060 ft | 510 kts | 134° |
| 2026-05-05 11:15 | 43.39693 | 24.62677 | 37061 ft | 510 kts | 134° |
| 2026-05-05 11:16 | 43.34565 | 24.69436 | 37062 ft | 510 kts | 135° |
| 2026-05-05 11:16 | 43.29440 | 24.76170 | 37065 ft | 510 kts | 135° |
| 2026-05-05 11:17 | 43.24305 | 24.82900 | 37048 ft | 510 kts | 135° |
| 2026-05-05 11:17 | 43.19156 | 24.89632 | 37052 ft | 510 kts | 135° |
| 2026-05-05 11:18 | 43.14016 | 24.96336 | 37051 ft | 510 kts | 135° |
| 2026-05-05 11:18 | 43.08904 | 25.02998 | 37062 ft | 510 kts | 135° |
| 2026-05-05 11:19 | 43.03751 | 25.09696 | 37060 ft | 510 kts | 135° |
| 2026-05-05 11:19 | 42.98604 | 25.16367 | 37058 ft | 510 kts | 135° |
| 2026-05-05 11:20 | 42.94320 | 25.21907 | 37063 ft | 510 kts | 135° |
| 2026-05-05 11:20 | 42.89170 | 25.28556 | 37060 ft | 510 kts | 135° |
| 2026-05-05 11:21 | 42.84012 | 25.35201 | 37053 ft | 510 kts | 135° |
| 2026-05-05 11:21 | 42.78852 | 25.41829 | 37046 ft | 510 kts | 135° |
| 2026-05-05 11:22 | 42.73684 | 25.48451 | 37044 ft | 510 kts | 135° |
| 2026-05-05 11:22 | 42.68507 | 25.55068 | 37047 ft | 511 kts | 135° |
| 2026-05-05 11:23 | 42.63322 | 25.61680 | 37044 ft | 511 kts | 135° |
| 2026-05-05 11:23 | 42.58172 | 25.68235 | 37048 ft | 511 kts | 136° |
| 2026-05-05 11:24 | 42.52979 | 25.74828 | 37050 ft | 511 kts | 136° |
| 2026-05-05 11:24 | 42.47771 | 25.81424 | 37049 ft | 511 kts | 136° |
| 2026-05-05 11:25 | 42.42572 | 25.87992 | 37045 ft | 511 kts | 136° |
| 2026-05-05 11:25 | 42.37370 | 25.94547 | 37052 ft | 511 kts | 136° |
| 2026-05-05 11:26 | 42.32094 | 26.01180 | 37057 ft | 511 kts | 136° |
| 2026-05-05 11:26 | 42.26919 | 26.07787 | 37051 ft | 511 kts | 132° |
| 2026-05-05 11:27 | 42.22802 | 26.15539 | 37060 ft | 508 kts | 118° |
| 2026-05-05 11:27 | 42.19341 | 26.23795 | 36996 ft | 507 kts | 117° |
| 2026-05-05 11:27 | 42.17614 | 26.27934 | 36750 ft | 507 kts | 117° |
| 2026-05-05 11:28 | 42.15882 | 26.32080 | 36497 ft | 508 kts | 117° |
| 2026-05-05 11:28 | 42.14141 | 26.36241 | 36249 ft | 509 kts | 117° |
| 2026-05-05 11:28 | 42.12398 | 26.40401 | 35996 ft | 509 kts | 117° |
| 2026-05-05 11:28 | 42.10654 | 26.44557 | 35748 ft | 510 kts | 117° |
| 2026-05-05 11:29 | 42.08908 | 26.48709 | 35505 ft | 510 kts | 117° |
| 2026-05-05 11:29 | 42.07156 | 26.52872 | 35269 ft | 510 kts | 117° |
| 2026-05-05 11:29 | 42.05428 | 26.56972 | 35014 ft | 510 kts | 117° |
| 2026-05-05 11:29 | 42.03682 | 26.61109 | 34324 ft | 509 kts | 117° |
| 2026-05-05 11:30 | 42.01930 | 26.65256 | 33423 ft | 511 kts | 117° |
| 2026-05-05 11:30 | 42.00163 | 26.69432 | 32534 ft | 512 kts | 117° |
| 2026-05-05 11:30 | 41.98397 | 26.73599 | 31716 ft | 512 kts | 117° |
| 2026-05-05 11:30 | 41.96627 | 26.77769 | 31233 ft | 515 kts | 117° |
| 2026-05-05 11:31 | 41.94795 | 26.81905 | 30946 ft | 515 kts | 119° |
| 2026-05-05 11:31 | 41.92923 | 26.85996 | 30069 ft | 514 kts | 119° |
| 2026-05-05 11:31 | 41.91050 | 26.90085 | 29345 ft | 510 kts | 119° |
| 2026-05-05 11:31 | 41.89223 | 26.94085 | 29052 ft | 496 kts | 118° |
| 2026-05-05 11:32 | 41.87447 | 26.97981 | 28779 ft | 484 kts | 118° |
| 2026-05-05 11:32 | 41.85706 | 27.01794 | 28504 ft | 472 kts | 118° |
| 2026-05-05 11:32 | 41.84011 | 27.05505 | 28260 ft | 461 kts | 118° |
| 2026-05-05 11:32 | 41.82351 | 27.09137 | 27958 ft | 452 kts | 118° |
| 2026-05-05 11:33 | 41.80535 | 27.12555 | 27758 ft | 458 kts | 126° |
| 2026-05-05 11:33 | 41.78483 | 27.15881 | 27453 ft | 461 kts | 128° |
| 2026-05-05 11:33 | 41.76389 | 27.19161 | 26852 ft | 470 kts | 128° |
| 2026-05-05 11:33 | 41.74207 | 27.22550 | 26778 ft | 489 kts | 128° |
| 2026-05-05 11:34 | 41.71973 | 27.26006 | 26629 ft | 495 kts | 129° |
| 2026-05-05 11:34 | 41.69718 | 27.29484 | 26387 ft | 494 kts | 129° |
| 2026-05-05 11:34 | 41.67466 | 27.32950 | 26149 ft | 492 kts | 129° |
| 2026-05-05 11:34 | 41.65221 | 27.36401 | 25893 ft | 490 kts | 129° |
| 2026-05-05 11:35 | 41.62981 | 27.39842 | 25644 ft | 488 kts | 129° |
| 2026-05-05 11:35 | 41.60756 | 27.43257 | 25399 ft | 486 kts | 129° |
| 2026-05-05 11:35 | 41.58530 | 27.46671 | 25152 ft | 484 kts | 129° |
| 2026-05-05 11:35 | 41.56322 | 27.50052 | 24918 ft | 482 kts | 129° |
| 2026-05-05 11:36 | 41.54123 | 27.53414 | 24682 ft | 480 kts | 129° |
| 2026-05-05 11:36 | 41.51932 | 27.56762 | 24445 ft | 478 kts | 129° |
| 2026-05-05 11:36 | 41.49748 | 27.60095 | 24214 ft | 476 kts | 129° |
| 2026-05-05 11:36 | 41.47574 | 27.63410 | 23982 ft | 474 kts | 129° |
| 2026-05-05 11:37 | 41.45410 | 27.66706 | 23701 ft | 471 kts | 129° |
| 2026-05-05 11:37 | 41.43288 | 27.69931 | 23016 ft | 466 kts | 129° |
| 2026-05-05 11:37 | 41.41157 | 27.73169 | 22281 ft | 461 kts | 129° |
| 2026-05-05 11:37 | 41.39052 | 27.76363 | 21551 ft | 457 kts | 129° |
| 2026-05-05 11:38 | 41.36954 | 27.79542 | 20827 ft | 453 kts | 129° |
| 2026-05-05 11:38 | 41.34881 | 27.82684 | 20099 ft | 450 kts | 129° |
| 2026-05-05 11:38 | 41.32820 | 27.85803 | 19351 ft | 448 kts | 129° |
| 2026-05-05 11:38 | 41.30760 | 27.88917 | 18594 ft | 446 kts | 129° |
| 2026-05-05 11:39 | 41.28741 | 27.91967 | 17786 ft | 444 kts | 129° |
| 2026-05-05 11:39 | 41.26708 | 27.95034 | 17001 ft | 440 kts | 129° |
| 2026-05-05 11:39 | 41.24691 | 27.98073 | 16239 ft | 436 kts | 128° |
| 2026-05-05 11:39 | 41.22695 | 28.01076 | 15474 ft | 432 kts | 128° |
| 2026-05-05 11:40 | 41.20714 | 28.04053 | 14753 ft | 427 kts | 128° |
| 2026-05-05 11:40 | 41.18760 | 28.06992 | 14052 ft | 423 kts | 128° |
| 2026-05-05 11:40 | 41.16828 | 28.09890 | 13276 ft | 409 kts | 128° |
| 2026-05-05 11:40 | 41.14994 | 28.12635 | 12348 ft | 386 kts | 128° |
| 2026-05-05 11:41 | 41.13233 | 28.15270 | 11601 ft | 378 kts | 128° |
| 2026-05-05 11:41 | 41.11513 | 28.17848 | 11140 ft | 360 kts | 128° |
| 2026-05-05 11:41 | 41.09930 | 28.20208 | 10998 ft | 325 kts | 128° |
| 2026-05-05 11:41 | 41.08494 | 28.22342 | 10860 ft | 297 kts | 127° |
| 2026-05-05 11:42 | 41.07190 | 28.24285 | 10723 ft | 273 kts | 127° |
| 2026-05-05 11:42 | 41.05936 | 28.26160 | 10592 ft | 264 kts | 127° |
| 2026-05-05 11:42 | 41.04753 | 28.27931 | 10467 ft | 256 kts | 127° |
| 2026-05-05 11:42 | 41.03583 | 28.29683 | 10340 ft | 252 kts | 126° |
| 2026-05-05 11:43 | 41.02421 | 28.31422 | 10230 ft | 252 kts | 126° |
| 2026-05-05 11:43 | 41.01259 | 28.33159 | 10110 ft | 252 kts | 126° |
| 2026-05-05 11:43 | 41.00098 | 28.34891 | 9986 ft | 251 kts | 127° |
| 2026-05-05 11:43 | 40.98929 | 28.36632 | 9873 ft | 257 kts | 127° |
| 2026-05-05 11:44 | 40.97762 | 28.38436 | 9760 ft | 257 kts | 122° |
| 2026-05-05 11:44 | 40.96784 | 28.40435 | 9677 ft | 264 kts | 115° |
| 2026-05-05 11:44 | 40.95869 | 28.42552 | 9492 ft | 265 kts | 114° |
| 2026-05-05 11:44 | 40.94965 | 28.44670 | 9157 ft | 264 kts | 114° |
| 2026-05-05 11:45 | 40.94061 | 28.46780 | 8868 ft | 262 kts | 115° |
| 2026-05-05 11:45 | 40.93165 | 28.48866 | 8607 ft | 260 kts | 115° |
| 2026-05-05 11:45 | 40.92272 | 28.50940 | 8344 ft | 259 kts | 115° |
| 2026-05-05 11:45 | 40.91382 | 28.53001 | 8121 ft | 257 kts | 115° |
| 2026-05-05 11:46 | 40.90494 | 28.55057 | 7861 ft | 256 kts | 115° |
| 2026-05-05 11:46 | 40.89670 | 28.57121 | 7595 ft | 252 kts | 108° |
| 2026-05-05 11:46 | 40.89380 | 28.59343 | 7361 ft | 242 kts | 80° |
| 2026-05-05 11:46 | 40.89748 | 28.61440 | 7126 ft | 236 kts | 67° |
| 2026-05-05 11:47 | 40.90289 | 28.63488 | 6868 ft | 236 kts | 66° |
| 2026-05-05 11:47 | 40.90843 | 28.65533 | 6612 ft | 236 kts | 66° |
| 2026-05-05 11:47 | 40.91410 | 28.67567 | 6349 ft | 235 kts | 63° |
| 2026-05-05 11:47 | 40.92317 | 28.69308 | 6086 ft | 228 kts | 39° |
| 2026-05-05 11:48 | 40.94872 | 28.71379 | 5932 ft | 205 kts | 26° |
| 2026-05-05 11:48 | 40.96117 | 28.72264 | 5900 ft | 201 kts | 26° |
| 2026-05-05 11:48 | 40.97428 | 28.72924 | 5799 ft | 201 kts | 13° |
| 2026-05-05 11:49 | 40.98806 | 28.73212 | 5626 ft | 201 kts | 4° |
| 2026-05-05 11:49 | 41.00200 | 28.73261 | 5337 ft | 200 kts | 359° |
| 2026-05-05 11:49 | 41.01574 | 28.73239 | 5081 ft | 200 kts | 358° |
| 2026-05-05 11:49 | 41.02973 | 28.73211 | 4900 ft | 199 kts | 359° |
| 2026-05-05 11:50 | 41.04349 | 28.73199 | 4663 ft | 196 kts | 359° |
| 2026-05-05 11:50 | 41.05702 | 28.73176 | 4394 ft | 193 kts | 359° |
| 2026-05-05 11:50 | 41.07036 | 28.73146 | 4126 ft | 191 kts | 359° |
| 2026-05-05 11:50 | 41.08363 | 28.73120 | 3876 ft | 190 kts | 359° |
| 2026-05-05 11:51 | 41.09680 | 28.73100 | 3603 ft | 188 kts | 359° |
| 2026-05-05 11:51 | 41.10985 | 28.73075 | 3352 ft | 187 kts | 359° |
| 2026-05-05 11:51 | 41.12280 | 28.73045 | 3087 ft | 184 kts | 359° |
| 2026-05-05 11:51 | 41.13565 | 28.73026 | 2830 ft | 185 kts | 359° |
| 2026-05-05 11:52 | 41.14843 | 28.73000 | 2579 ft | 180 kts | 359° |
| 2026-05-05 11:52 | 41.16060 | 28.72970 | 2340 ft | 169 kts | 359° |
| 2026-05-05 11:52 | 41.17199 | 28.72950 | 2123 ft | 158 kts | 359° |
| 2026-05-05 11:52 | 41.18269 | 28.72929 | 1910 ft | 148 kts | 360° |
| 2026-05-05 11:53 | 41.19266 | 28.72910 | 1711 ft | 139 kts | 360° |
| 2026-05-05 11:53 | 41.20201 | 28.72892 | 1518 ft | 129 kts | 360° |
| 2026-05-05 11:53 | 41.21077 | 28.72875 | 1370 ft | 125 kts | 359° |
| 2026-05-05 11:53 | 41.21936 | 28.72858 | 1172 ft | 126 kts | 360° |
| 2026-05-05 11:54 | 41.22806 | 28.72841 | 1006 ft | 124 kts | 359° |
| 2026-05-05 11:54 | 41.23669 | 28.72829 | 839 ft | 124 kts | 358° |
| 2026-05-05 11:54 | 41.24524 | 28.72794 | 694 ft | 123 kts | 360° |
| 2026-05-05 11:54 | 41.25372 | 28.72786 | 541 ft | 121 kts | 0° |
| 2026-05-05 11:55 | 41.26205 | 28.72767 | 384 ft | 122 kts | 1° |
| 2026-05-05 11:55 | 41.27021 | 28.72754 | 323 ft | 105 kts | 360° |
| 2026-05-05 11:55 | 41.27601 | 28.72750 | 321 ft | 52 kts | 359° |
| 2026-05-05 11:55 | 41.27783 | 28.72748 | 320 ft | 15 kts | 360° |
| 2026-05-05 11:56 | 41.27897 | 28.72758 | 318 ft | 18 kts | 9° |
| 2026-05-05 11:56 | 41.27997 | 28.72797 | 316 ft | 9 kts | 21° |
| 2026-05-05 11:56 | 41.28058 | 28.72834 | 310 ft | 10 kts | 27° |
| 2026-05-05 11:56 | 41.28096 | 28.72864 | 305 ft | 9 kts | 33° |
| 2026-05-05 11:57 | 41.28126 | 28.72924 | 298 ft | 6 kts | 83° |
| 2026-05-05 11:57 | 41.28093 | 28.72955 | 294 ft | 8 kts | 161° |
| 2026-05-05 11:57 | 41.28029 | 28.72967 | 294 ft | 10 kts | 177° |
| 2026-05-05 11:57 | 41.27951 | 28.72968 | 297 ft | 12 kts | 179° |
| 2026-05-05 11:58 | 41.27859 | 28.72970 | 299 ft | 14 kts | 179° |
| 2026-05-05 11:58 | 41.27760 | 28.72972 | 304 ft | 15 kts | 179° |
| 2026-05-05 11:58 | 41.27653 | 28.72973 | 308 ft | 16 kts | 179° |
| 2026-05-05 11:58 | 41.27536 | 28.72975 | 309 ft | 18 kts | 179° |
| 2026-05-05 11:59 | 41.27407 | 28.72977 | 313 ft | 20 kts | 179° |
| 2026-05-05 11:59 | 41.27265 | 28.72980 | 317 ft | 22 kts | 179° |
| 2026-05-05 11:59 | 41.27107 | 28.72982 | 316 ft | 24 kts | 179° |
| 2026-05-05 11:59 | 41.26979 | 28.72984 | 317 ft | 15 kts | 179° |
| 2026-05-05 12:00 | 41.26888 | 28.73007 | 317 ft | 12 kts | 144° |
| 2026-05-05 12:00 | 41.26865 | 28.73122 | 316 ft | 15 kts | 90° |
| 2026-05-05 12:00 | 41.26866 | 28.73261 | 319 ft | 15 kts | 89° |
| 2026-05-05 12:00 | 41.26868 | 28.73415 | 320 ft | 18 kts | 89° |
| 2026-05-05 12:01 | 41.26871 | 28.73595 | 320 ft | 19 kts | 89° |
| 2026-05-05 12:01 | 41.26872 | 28.73727 | 320 ft | 10 kts | 89° |
| 2026-05-05 12:01 | 41.26872 | 28.73798 | 320 ft | 6 kts | 93° |
| 2026-05-05 12:01 | 41.26845 | 28.73851 | 319 ft | 8 kts | 145° |
| 2026-05-05 12:02 | 41.26779 | 28.73870 | 320 ft | 8 kts | 178° |
| 2026-05-05 12:02 | 41.26741 | 28.73864 | 320 ft | 4 kts | 201° |
| 2026-05-05 12:02 | 41.26728 | 28.73830 | 320 ft | 5 kts | 256° |
| 2026-05-05 12:02 | 41.26725 | 28.73788 | 320 ft | 3 kts | 268° |
| 2026-05-05 12:03 | 41.26725 | 28.73771 | 320 ft | 1 kts | 269° |
| 2026-05-05 12:03 | 41.26725 | 28.73762 | 320 ft | 0 kts | 269° |
| 2026-05-05 12:03 | 41.26725 | 28.73761 | 320 ft | 0 kts | 269° |
| 2026-05-05 12:05 | 41.26725 | 28.73750 | 320 ft | 0 kts | 270° |
| 2026-05-05 12:05 | 41.26790 | 28.73739 | 320 ft | 0 kts | 270° |
| 2026-05-05 12:06 | 41.26725 | 28.73750 | 320 ft | 0 kts | 270° |
| 2026-05-05 12:06 | 41.26790 | 28.73739 | 320 ft | 0 kts | 270° |